createdAt,value
2023-04-27T00:00:59.201Z,101343.38
2023-04-27T00:03:26.478Z,101343.47
2023-04-27T00:05:53.233Z,101341.22
2023-04-27T00:08:19.705Z,101344.09
2023-04-27T00:10:46.315Z,101344.75
2023-04-27T00:13:12.645Z,101337.59
2023-04-27T00:15:39.234Z,101338.97
2023-04-27T00:18:05.605Z,101338.97
2023-04-27T00:20:31.999Z,101334.63
2023-04-27T00:22:58.347Z,101337.50
2023-04-27T00:25:24.711Z,101330.22
2023-04-27T00:27:51.140Z,101340.25
2023-04-27T00:30:17.478Z,101341.75
2023-04-27T00:32:43.947Z,101337.38
2023-04-27T00:35:10.435Z,101335.25
2023-04-27T00:37:36.780Z,101333.00
2023-04-27T00:40:04.160Z,101345.28
2023-04-27T00:42:30.487Z,101343.03
2023-04-27T00:44:59.736Z,101343.03
2023-04-27T00:47:26.273Z,101348.78
2023-04-27T00:49:52.655Z,101347.31
2023-04-27T00:52:18.985Z,101345.81
2023-04-27T00:54:45.362Z,101351.56
2023-04-27T00:57:11.698Z,101345.06
2023-04-27T00:59:38.018Z,101353.69
2023-04-27T01:02:04.829Z,101355.84
2023-04-27T01:04:32.357Z,101355.84
2023-04-27T01:06:58.954Z,101352.97
2023-04-27T01:09:25.781Z,101354.31
2023-04-27T01:11:52.125Z,101360.63
2023-04-27T01:14:18.449Z,101356.34
2023-04-27T01:16:46.358Z,101362.84
2023-04-27T01:19:13.038Z,101360.63
2023-04-27T01:21:39.527Z,101355.59
2023-04-27T01:24:06.284Z,101361.38
2023-04-27T01:26:32.669Z,101365.59
2023-04-27T01:28:59.129Z,101371.38
2023-04-27T01:31:26.799Z,101369.84
2023-04-27T01:33:53.537Z,101372.72
2023-04-27T01:36:19.881Z,101366.97
2023-04-27T01:38:46.232Z,101375.59
2023-04-27T01:41:12.787Z,101369.13
2023-04-27T01:43:43.582Z,101381.38
2023-04-27T01:46:10.646Z,101372.63
2023-04-27T01:48:37.052Z,101375.50
2023-04-27T01:51:03.831Z,101379.78
2023-04-27T01:53:30.686Z,101379.00
2023-04-27T01:55:57.169Z,101384.03
2023-04-27T01:58:24.310Z,101386.91
2023-04-27T02:00:50.682Z,101391.16
2023-04-27T02:03:17.168Z,101380.41
2023-04-27T02:05:43.582Z,101397.66
2023-04-27T02:08:09.955Z,101397.66
2023-04-27T02:10:36.313Z,101389.66
2023-04-27T02:13:02.664Z,101395.41
2023-04-27T02:15:29.016Z,101398.94
2023-04-27T02:17:55.506Z,101399.69
2023-04-27T02:20:21.906Z,101396.81
2023-04-27T02:22:48.385Z,101402.56
2023-04-27T02:25:15.395Z,101401.81
2023-04-27T02:27:42.405Z,101402.44
2023-04-27T02:30:09.553Z,101398.19
2023-04-27T02:32:36.389Z,101403.19
2023-04-27T02:35:04.551Z,101400.94
2023-04-27T02:37:31.038Z,101407.47
2023-04-27T02:39:57.415Z,101401.72
2023-04-27T02:42:23.741Z,101407.47
2023-04-27T02:44:50.083Z,101409.69
2023-04-27T02:47:16.423Z,101406.91
2023-04-27T02:49:43.102Z,101405.66
2023-04-27T02:52:09.474Z,101414.38
2023-04-27T02:54:35.904Z,101414.53
2023-04-27T02:57:02.331Z,101416.78
2023-04-27T02:59:28.675Z,101416.78
2023-04-27T03:01:55.064Z,101425.41
2023-04-27T03:04:21.552Z,101414.63
2023-04-27T03:06:48.514Z,101411.75
2023-04-27T03:09:15.371Z,101426.16
2023-04-27T03:11:42.047Z,101413.28
2023-04-27T03:14:08.394Z,101424.03
2023-04-27T03:16:34.764Z,101429.13
2023-04-27T03:19:01.677Z,101429.13
2023-04-27T03:21:30.220Z,101424.91
2023-04-27T03:23:56.687Z,101432.88
2023-04-27T03:26:23.017Z,101433.63
2023-04-27T03:28:49.369Z,101432.13
2023-04-27T03:31:15.887Z,101428.63
2023-04-27T03:33:42.256Z,101429.38
2023-04-27T03:36:08.680Z,101434.38
2023-04-27T03:38:35.525Z,101434.38
2023-04-27T03:41:01.866Z,101445.16
2023-04-27T03:43:28.229Z,101441.63
2023-04-27T03:45:54.655Z,101441.63
2023-04-27T03:48:21.008Z,101445.34
2023-04-27T03:50:47.679Z,101442.47
2023-04-27T03:53:15.130Z,101448.34
2023-04-27T03:55:42.225Z,101451.22
2023-04-27T03:58:10.262Z,101451.97
2023-04-27T04:00:38.231Z,101446.84
2023-04-27T04:03:04.854Z,101459.84
2023-04-27T04:05:32.146Z,101454.84
2023-04-27T04:07:58.479Z,101464.88
2023-04-27T04:10:26.227Z,101465.59
2023-04-27T04:12:53.319Z,101462.63
2023-04-27T04:15:20.254Z,101462.63
2023-04-27T04:17:49.201Z,101465.50
2023-04-27T04:20:15.976Z,101458.47
2023-04-27T04:22:43.225Z,101470.00
2023-04-27T04:25:09.659Z,101467.84
2023-04-27T04:27:37.539Z,101467.13
2023-04-27T04:30:06.296Z,101479.47
2023-04-27T04:32:33.826Z,101471.47
2023-04-27T04:35:01.549Z,101473.00
2023-04-27T04:37:28.976Z,101471.47
2023-04-27T04:39:56.601Z,101480.84
2023-04-27T04:42:24.524Z,101483.72
2023-04-27T04:44:51.192Z,101485.88
2023-04-27T04:47:17.785Z,101484.50
2023-04-27T04:49:45.677Z,101483.09
2023-04-27T04:52:12.082Z,101483.09
2023-04-27T04:54:38.418Z,101483.84
2023-04-27T04:57:05.443Z,101493.34
2023-04-27T04:59:35.155Z,101497.59
2023-04-27T05:02:01.664Z,101491.84
2023-04-27T05:04:28.746Z,101493.22
2023-04-27T05:06:55.246Z,101491.09
2023-04-27T05:09:21.580Z,101494.72
2023-04-27T05:11:47.972Z,101490.34
2023-04-27T05:14:14.359Z,101498.97
2023-04-27T05:16:40.924Z,101500.38
2023-04-27T05:19:08.362Z,101496.09
2023-04-27T05:21:34.738Z,101504.72
2023-04-27T05:24:01.327Z,101504.09
2023-04-27T05:26:27.676Z,101507.59
2023-04-27T05:28:54.055Z,101505.91
2023-04-27T05:31:20.488Z,101495.25
2023-04-27T05:33:46.968Z,101505.50
2023-04-27T05:36:13.532Z,101510.59
2023-04-27T05:38:40.566Z,101507.09
2023-04-27T05:41:07.502Z,101510.59
2023-04-27T05:43:35.081Z,101516.34
2023-04-27T05:46:01.472Z,101511.38
2023-04-27T05:48:27.907Z,101516.34
2023-04-27T05:51:01.369Z,101511.38
2023-04-27T05:53:27.716Z,101512.84
2023-04-27T05:55:54.062Z,101513.59
2023-04-27T05:58:20.532Z,101523.75
2023-04-27T06:00:46.969Z,101527.38
2023-04-27T06:03:13.701Z,101528.09
2023-04-27T06:05:40.282Z,101524.47
2023-04-27T06:08:06.652Z,101521.59
2023-04-27T06:10:33.047Z,101536.75
2023-04-27T06:12:59.406Z,101528.09
2023-04-27T06:15:25.910Z,101536.75
2023-04-27T06:17:52.277Z,101530.97
2023-04-27T06:20:18.678Z,101536.75
2023-04-27T06:22:46.774Z,101535.25
2023-04-27T06:25:13.119Z,101543.88
2023-04-27T06:27:39.479Z,101542.38
2023-04-27T06:30:06.331Z,101543.78
2023-04-27T06:32:32.745Z,101548.13
2023-04-27T06:34:59.118Z,101536.63
2023-04-27T06:37:26.084Z,101546.78
2023-04-27T06:39:52.424Z,101545.38
2023-04-27T06:42:18.804Z,101539.63
2023-04-27T06:44:45.165Z,101543.22
2023-04-27T06:47:11.535Z,101541.13
2023-04-27T06:49:37.876Z,101547.63
2023-04-27T06:52:04.613Z,101540.34
2023-04-27T06:54:30.979Z,101536.84
2023-04-27T06:56:57.324Z,101546.88
2023-04-27T06:59:23.679Z,101546.13
2023-04-27T07:01:50.199Z,101549.75
2023-04-27T07:04:16.687Z,101546.13
2023-04-27T07:06:43.066Z,101550.38
2023-04-27T07:09:19.939Z,101558.41
2023-04-27T07:11:52.708Z,101554.00
2023-04-27T07:14:19.073Z,101551.13
2023-04-27T07:16:45.669Z,101555.53
2023-04-27T07:19:12.260Z,101557.00
2023-04-27T07:21:39.020Z,101554.13
2023-04-27T07:24:05.936Z,101557.13
2023-04-27T07:26:32.782Z,101551.38
2023-04-27T07:28:59.161Z,101549.97
2023-04-27T07:31:25.951Z,101557.22
2023-04-27T07:33:53.537Z,101561.59
2023-04-27T07:36:19.936Z,101560.13
2023-04-27T07:38:46.292Z,101560.63
2023-04-27T07:41:14.347Z,101560.25
2023-04-27T07:43:42.201Z,101550.88
2023-04-27T07:46:08.650Z,101558.41
2023-04-27T07:48:35.011Z,101551.00
2023-04-27T07:51:01.359Z,101560.75
2023-04-27T07:53:27.715Z,101559.63
2023-04-27T07:55:54.092Z,101567.22
2023-04-27T07:58:20.546Z,101561.03
2023-04-27T08:00:46.957Z,101569.63
2023-04-27T08:03:13.542Z,101562.09
2023-04-27T08:05:40.475Z,101565.44
2023-04-27T08:08:07.324Z,101562.03
2023-04-27T08:10:33.821Z,101567.28
2023-04-27T08:13:00.159Z,101567.78
2023-04-27T08:15:26.517Z,101571.78
2023-04-27T08:17:52.990Z,101577.53
2023-04-27T08:20:19.343Z,101581.06
2023-04-27T08:22:45.675Z,101577.03
2023-04-27T08:25:12.021Z,101576.91
2023-04-27T08:27:38.714Z,101582.78
2023-04-27T08:30:05.270Z,101571.25
2023-04-27T08:32:31.785Z,101581.25
2023-04-27T08:34:58.125Z,101579.16
2023-04-27T08:37:24.472Z,101579.91
2023-04-27T08:39:51.058Z,101580.03
2023-04-27T08:42:17.445Z,101582.91
2023-04-27T08:44:43.945Z,101577.16
2023-04-27T08:47:10.392Z,101574.28
2023-04-27T08:49:38.477Z,101579.44
2023-04-27T08:52:05.264Z,101571.38
2023-04-27T08:54:31.616Z,101566.06
2023-04-27T08:56:58.298Z,101575.91
2023-04-27T08:59:24.628Z,101573.47
2023-04-27T09:01:51.274Z,101572.84
2023-04-27T09:04:18.643Z,101569.94
2023-04-27T09:06:45.183Z,101576.78
2023-04-27T09:09:20.972Z,101574.78
2023-04-27T09:11:47.314Z,101574.28
2023-04-27T09:14:16.620Z,101580.03
2023-04-27T09:16:43.093Z,101571.00
2023-04-27T09:19:09.590Z,101580.50
2023-04-27T09:21:35.922Z,101580.59
2023-04-27T09:24:12.823Z,101579.75
2023-04-27T09:26:39.214Z,101578.50
2023-04-27T09:29:05.604Z,101572.97
2023-04-27T09:31:32.745Z,101575.75
2023-04-27T09:33:59.143Z,101577.22
2023-04-27T09:36:25.495Z,101575.75
2023-04-27T09:38:51.836Z,101572.97
2023-04-27T09:41:18.306Z,101566.53
2023-04-27T09:43:47.407Z,101566.09
2023-04-27T09:46:13.990Z,101561.59
2023-04-27T09:48:40.949Z,101551.59
2023-04-27T09:51:07.340Z,101547.19
2023-04-27T09:53:59.896Z,101541.56
2023-04-27T09:56:29.226Z,101540.81
2023-04-27T09:58:56.096Z,101540.06
2023-04-27T10:01:40.015Z,101540.06
2023-04-27T10:04:11.456Z,101537.38
2023-04-27T10:06:57.949Z,101536.97
2023-04-27T10:09:24.513Z,101525.56
2023-04-27T10:11:51.577Z,101532.81
2023-04-27T10:14:18.531Z,101536.44
2023-04-27T10:16:46.510Z,101532.69
2023-04-27T10:19:13.198Z,101537.09
2023-04-27T10:21:56.887Z,101537.09
2023-04-27T10:24:39.168Z,101541.22
2023-04-27T10:27:06.360Z,101536.84
2023-04-27T10:29:36.743Z,101536.97
2023-04-27T10:32:06.098Z,101531.31
2023-04-27T10:34:34.099Z,101534.31
2023-04-27T10:37:07.619Z,101542.09
2023-04-27T10:39:48.514Z,101538.44
2023-04-27T10:42:15.290Z,101539.84
2023-04-27T10:44:41.641Z,101542.84
2023-04-27T10:47:14.723Z,101547.09
2023-04-27T10:49:41.065Z,101541.31
2023-04-27T10:52:07.438Z,101537.09
2023-04-27T10:54:35.097Z,101529.81
2023-04-27T10:57:08.189Z,101529.81
2023-04-27T10:59:34.697Z,101532.56
2023-04-27T11:02:01.494Z,101531.31
2023-04-27T11:04:38.411Z,101527.59
2023-04-27T11:07:04.837Z,101528.97
2023-04-27T11:09:31.463Z,101530.59
2023-04-27T11:11:57.863Z,101542.84
2023-04-27T11:14:24.188Z,101534.19
2023-04-27T11:16:50.621Z,101538.56
2023-04-27T11:19:17.186Z,101535.56
2023-04-27T11:21:43.588Z,101539.31
2023-04-27T11:24:15.180Z,101527.78
2023-04-27T11:26:41.881Z,101528.34
2023-04-27T11:29:10.131Z,101542.84
2023-04-27T11:31:40.172Z,101545.59
2023-04-27T11:34:07.834Z,101547.09
2023-04-27T11:36:34.318Z,101552.84
2023-04-27T11:39:00.761Z,101551.38
2023-04-27T11:41:36.677Z,101554.31
2023-04-27T11:44:07.617Z,101547.84
2023-04-27T11:46:36.505Z,101558.78
2023-04-27T11:49:04.600Z,101560.47
2023-04-27T11:51:33.111Z,101566.69
2023-04-27T11:54:03.413Z,101559.41
2023-04-27T11:56:39.645Z,101571.59
2023-04-27T11:59:06.172Z,101563.19
2023-04-27T12:01:38.038Z,101563.94
2023-04-27T12:04:05.155Z,101561.16
2023-04-27T12:06:33.525Z,101555.41
2023-04-27T12:09:00.171Z,101556.88
2023-04-27T12:11:27.709Z,101559.75
2023-04-27T12:13:54.318Z,101558.41
2023-04-27T12:16:22.242Z,101558.41
2023-04-27T12:18:49.560Z,101561.28
2023-04-27T12:21:15.940Z,101570.66
2023-04-27T12:23:42.553Z,101565.53
2023-04-27T12:26:08.900Z,101574.16
2023-04-27T12:28:35.429Z,101574.16
2023-04-27T12:31:03.897Z,101568.41
2023-04-27T12:33:30.334Z,101572.03
2023-04-27T12:35:56.726Z,101568.41
2023-04-27T12:38:23.087Z,101568.41
2023-04-27T12:40:49.426Z,101569.91
2023-04-27T12:43:15.812Z,101560.50
2023-04-27T12:45:42.391Z,101569.91
2023-04-27T12:48:08.772Z,101568.41
2023-04-27T12:50:37.567Z,101568.41
2023-04-27T12:53:03.939Z,101578.63
2023-04-27T12:55:33.719Z,101574.28
2023-04-27T12:58:00.432Z,101577.03
2023-04-27T13:00:26.749Z,101569.91
2023-04-27T13:02:53.427Z,101584.94
2023-04-27T13:05:20.920Z,101574.91
2023-04-27T13:07:47.322Z,101564.03
2023-04-27T13:10:13.653Z,101572.69
2023-04-27T13:12:40.019Z,101562.66
2023-04-27T13:15:07.739Z,101569.91
2023-04-27T13:17:34.133Z,101566.91
2023-04-27T13:20:00.567Z,101566.16
2023-04-27T13:22:26.915Z,101558.41
2023-04-27T13:24:53.270Z,101559.88
2023-04-27T13:27:22.361Z,101562.88
2023-04-27T13:29:51.138Z,101559.38
2023-04-27T13:32:17.765Z,101558.72
2023-04-27T13:34:44.368Z,101555.84
2023-04-27T13:37:10.815Z,101556.56
2023-04-27T13:39:37.605Z,101555.84
2023-04-27T13:42:04.011Z,101553.06
2023-04-27T13:44:31.652Z,101550.06
2023-04-27T13:46:58.234Z,101548.59
2023-04-27T13:49:24.614Z,101563.00
2023-04-27T13:51:50.978Z,101558.59
2023-04-27T13:54:17.353Z,101559.47
2023-04-27T13:56:43.695Z,101555.84
2023-04-27T13:59:10.623Z,101542.97
2023-04-27T14:01:38.030Z,101555.94
2023-04-27T14:04:04.646Z,101548.81
2023-04-27T14:06:32.004Z,101548.06
2023-04-27T14:08:58.410Z,101552.44
2023-04-27T14:11:24.785Z,101560.53
2023-04-27T14:13:51.302Z,101557.78
2023-04-27T14:16:17.741Z,101556.28
2023-04-27T14:18:44.163Z,101556.53
2023-04-27T14:21:10.643Z,101559.41
2023-04-27T14:23:37.010Z,101556.53
2023-04-27T14:26:03.999Z,101559.41
2023-04-27T14:28:30.334Z,101555.00
2023-04-27T14:30:56.680Z,101565.03
2023-04-27T14:33:23.005Z,101563.44
2023-04-27T14:35:49.347Z,101562.06
2023-04-27T14:38:15.724Z,101562.06
2023-04-27T14:40:42.086Z,101562.06
2023-04-27T14:43:08.455Z,101561.31
2023-04-27T14:45:47.847Z,101547.03
2023-04-27T14:48:17.820Z,101559.28
2023-04-27T14:50:44.240Z,101560.16
2023-04-27T14:53:10.589Z,101556.53
2023-04-27T14:55:36.958Z,101562.47
2023-04-27T14:58:03.392Z,101562.47
2023-04-27T15:00:29.752Z,101549.72
2023-04-27T15:02:56.230Z,101554.06
2023-04-27T15:05:22.650Z,101552.69
2023-04-27T15:07:49.000Z,101553.44
2023-04-27T15:10:15.444Z,101551.31
2023-04-27T15:12:41.796Z,101544.19
2023-04-27T15:15:10.386Z,101549.94
2023-04-27T15:17:37.024Z,101548.53
2023-04-27T15:20:05.631Z,101543.53
2023-04-27T15:22:32.046Z,101545.66
2023-04-27T15:24:58.433Z,101535.63
2023-04-27T15:27:25.520Z,101541.38
2023-04-27T15:29:54.914Z,101534.88
2023-04-27T15:32:23.281Z,101537.03
2023-04-27T15:34:49.922Z,101544.25
2023-04-27T15:37:16.302Z,101547.91
2023-04-27T15:39:42.639Z,101539.91
2023-04-27T15:42:08.975Z,101538.50
2023-04-27T15:44:35.911Z,101534.13
2023-04-27T15:47:02.513Z,101536.38
2023-04-27T15:49:29.936Z,101529.88
2023-04-27T15:51:56.295Z,101532.75
2023-04-27T15:54:22.644Z,101522.72
2023-04-27T15:56:49.006Z,101526.34
2023-04-27T15:59:15.701Z,101532.13
2023-04-27T16:01:42.367Z,101523.34
2023-04-27T16:04:08.920Z,101518.34
2023-04-27T16:06:36.362Z,101519.09
2023-04-27T16:09:03.516Z,101519.09
2023-04-27T16:11:30.288Z,101515.56
2023-04-27T16:13:56.634Z,101512.81
2023-04-27T16:16:23.399Z,101512.69
2023-04-27T16:18:49.750Z,101508.56
2023-04-27T16:21:16.592Z,101511.31
2023-04-27T16:23:42.914Z,101510.03
2023-04-27T16:26:09.264Z,101507.03
2023-04-27T16:28:36.184Z,101495.53
2023-04-27T16:31:02.562Z,101499.06
2023-04-27T16:33:28.898Z,101506.09
2023-04-27T16:35:57.093Z,101496.81
2023-04-27T16:38:23.431Z,101495.31
2023-04-27T16:40:49.774Z,101505.34
2023-04-27T16:43:16.177Z,101498.84
2023-04-27T16:45:42.602Z,101502.47
2023-04-27T16:48:12.440Z,101504.59
2023-04-27T16:50:38.816Z,101502.25
2023-04-27T16:53:06.034Z,101500.09
2023-04-27T16:55:32.609Z,101499.34
2023-04-27T16:57:58.967Z,101503.63
2023-04-27T17:00:25.454Z,101497.88
2023-04-27T17:02:51.950Z,101503.63
2023-04-27T17:05:18.651Z,101495.00
2023-04-27T17:07:45.114Z,101503.63
2023-04-27T17:10:11.518Z,101496.38
2023-04-27T17:12:38.075Z,101500.66
2023-04-27T17:15:04.747Z,101499.72
2023-04-27T17:17:34.397Z,101503.25
2023-04-27T17:20:00.897Z,101496.81
2023-04-27T17:22:28.284Z,101498.03
2023-04-27T17:24:54.661Z,101502.19
2023-04-27T17:27:21.062Z,101498.28
2023-04-27T17:29:47.407Z,101496.69
2023-04-27T17:32:14.293Z,101502.09
2023-04-27T17:34:42.978Z,101500.56
2023-04-27T17:37:09.549Z,101503.06
2023-04-27T17:39:35.902Z,101498.31
2023-04-27T17:42:02.264Z,101500.94
2023-04-27T17:44:28.621Z,101500.34
2023-04-27T17:46:55.276Z,101499.84
2023-04-27T17:49:21.713Z,101493.09
2023-04-27T17:51:48.061Z,101495.66
2023-04-27T17:54:14.401Z,101498.84
2023-04-27T17:56:40.975Z,101508.97
2023-04-27T17:59:10.299Z,101502.59
2023-04-27T18:01:36.644Z,101506.56
2023-04-27T18:04:04.621Z,101505.03
2023-04-27T18:06:32.010Z,101513.50
2023-04-27T18:08:58.438Z,101506.75
2023-04-27T18:11:25.094Z,101506.44
2023-04-27T18:13:52.304Z,101517.78
2023-04-27T18:16:18.729Z,101511.66
2023-04-27T18:18:45.102Z,101517.66
2023-04-27T18:21:11.481Z,101520.63
2023-04-27T18:23:37.901Z,101524.38
2023-04-27T18:26:04.232Z,101519.38
2023-04-27T18:28:30.697Z,101523.09
2023-04-27T18:30:57.022Z,101534.59
2023-04-27T18:33:23.365Z,101530.34
2023-04-27T18:35:50.287Z,101536.84
2023-04-27T18:38:16.623Z,101534.09
2023-04-27T18:40:42.958Z,101537.72
2023-04-27T18:43:09.344Z,101540.84
2023-04-27T18:45:35.761Z,101542.81
2023-04-27T18:48:02.119Z,101542.31
2023-04-27T18:50:28.489Z,101545.19
2023-04-27T18:52:54.855Z,101543.06
2023-04-27T18:55:21.563Z,101545.94
2023-04-27T18:57:47.918Z,101548.81
2023-04-27T19:00:14.338Z,101551.81
2023-04-27T19:02:40.889Z,101548.94
2023-04-27T19:05:12.800Z,101548.19
2023-04-27T19:07:39.733Z,101546.69
2023-04-27T19:10:06.677Z,101550.31
2023-04-27T19:12:33.056Z,101553.19
2023-04-27T19:14:59.395Z,101548.94
2023-04-27T19:17:26.134Z,101556.81
2023-04-27T19:19:52.585Z,101548.19
2023-04-27T19:22:19.055Z,101553.31
2023-04-27T19:24:45.568Z,101553.41
2023-04-27T19:27:12.249Z,101553.31
2023-04-27T19:29:48.679Z,101552.03
2023-04-27T19:32:15.027Z,101544.16
2023-04-27T19:34:41.373Z,101550.78
2023-04-27T19:37:07.735Z,101552.28
2023-04-27T19:39:34.609Z,101552.28
2023-04-27T19:42:01.576Z,101546.66
2023-04-27T19:44:27.919Z,101550.25
2023-04-27T19:46:54.274Z,101551.00
2023-04-27T19:49:20.779Z,101548.00
2023-04-27T19:51:47.239Z,101555.28
2023-04-27T19:54:14.428Z,101553.75
2023-04-27T19:56:41.169Z,101548.88
2023-04-27T19:59:07.650Z,101549.03
2023-04-27T20:01:34.045Z,101544.00
2023-04-27T20:04:00.710Z,101544.00
2023-04-27T20:06:27.326Z,101537.00
2023-04-27T20:08:53.682Z,101538.38
2023-04-27T20:11:20.102Z,101538.38
2023-04-27T20:13:46.456Z,101540.63
2023-04-27T20:16:12.882Z,101538.47
2023-04-27T20:18:39.283Z,101537.00
2023-04-27T20:21:05.630Z,101537.00
2023-04-27T20:23:32.025Z,101537.75
2023-04-27T20:25:58.369Z,101539.88
2023-04-27T20:28:24.716Z,101536.25
2023-04-27T20:30:51.050Z,101529.72
2023-04-27T20:33:17.580Z,101536.25
2023-04-27T20:35:43.956Z,101542.75
2023-04-27T20:38:10.440Z,101544.25
2023-04-27T20:40:37.721Z,101539.22
2023-04-27T20:43:04.245Z,101535.59
2023-04-27T20:45:31.151Z,101537.00
2023-04-27T20:47:58.083Z,101535.59
2023-04-27T20:50:24.502Z,101530.50
2023-04-27T20:52:50.837Z,101535.50
2023-04-27T20:55:17.405Z,101528.25
2023-04-27T20:57:43.763Z,101525.38
2023-04-27T21:00:10.218Z,101520.97
2023-04-27T21:02:36.635Z,101521.75
2023-04-27T21:05:03.306Z,101518.72
2023-04-27T21:07:29.718Z,101525.22
2023-04-27T21:09:56.072Z,101524.50
2023-04-27T21:12:22.855Z,101524.50
2023-04-27T21:14:49.249Z,101522.22
2023-04-27T21:17:15.594Z,101515.75
2023-04-27T21:19:42.167Z,101514.22
2023-04-27T21:22:08.552Z,101515.75
2023-04-27T21:24:34.900Z,101512.13
2023-04-27T21:27:01.752Z,101515.00
2023-04-27T21:29:28.086Z,101503.50
2023-04-27T21:31:54.434Z,101513.50
2023-04-27T21:34:20.782Z,101507.00
2023-04-27T21:36:47.128Z,101506.25
2023-04-27T21:39:13.502Z,101506.88
2023-04-27T21:41:40.963Z,101514.75
2023-04-27T21:44:07.341Z,101501.75
2023-04-27T21:46:33.769Z,101507.50
2023-04-27T21:49:00.143Z,101511.78
2023-04-27T21:51:26.509Z,101504.50
2023-04-27T21:53:52.843Z,101500.25
2023-04-27T21:56:19.210Z,101507.38
2023-04-27T21:58:45.738Z,101503.03
2023-04-27T22:01:12.912Z,101512.41
2023-04-27T22:03:39.657Z,101504.41
2023-04-27T22:06:06.253Z,101513.78
2023-04-27T22:08:32.639Z,101518.03
2023-04-27T22:10:59.024Z,101511.53
2023-04-27T22:13:25.384Z,101517.28
2023-04-27T22:15:52.225Z,101510.06
2023-04-27T22:18:18.613Z,101510.06
2023-04-27T22:20:44.958Z,101502.78
2023-04-27T22:23:11.519Z,101512.81
2023-04-27T22:25:38.363Z,101513.56
2023-04-27T22:28:04.733Z,101507.69
2023-04-27T22:30:31.095Z,101508.41
2023-04-27T22:32:57.715Z,101512.69
2023-04-27T22:35:27.531Z,101517.06
2023-04-27T22:37:54.843Z,101519.81
2023-04-27T22:40:21.289Z,101521.19
2023-04-27T22:42:47.635Z,101518.31
2023-04-27T22:45:14.006Z,101512.56
2023-04-27T22:47:41.350Z,101518.31
2023-04-27T22:50:08.086Z,101511.09
2023-04-27T22:52:34.513Z,101511.09
2023-04-27T22:55:02.117Z,101521.09
2023-04-27T22:57:28.869Z,101516.72
2023-04-27T22:59:55.262Z,101515.34
2023-04-27T23:02:21.700Z,101511.84
2023-04-27T23:04:48.360Z,101508.22
2023-04-27T23:07:17.953Z,101503.19
2023-04-27T23:09:48.137Z,101507.56
2023-04-27T23:12:14.501Z,101498.31
2023-04-27T23:14:42.197Z,101499.69
2023-04-27T23:17:08.799Z,101495.56
2023-04-27T23:19:35.222Z,101493.28
2023-04-27T23:22:01.786Z,101496.78
2023-04-27T23:24:31.235Z,101486.69
2023-04-27T23:26:57.652Z,101494.56
2023-04-27T23:29:24.023Z,101491.69
2023-04-27T23:31:50.546Z,101497.44
2023-04-27T23:34:17.085Z,101490.97
2023-04-27T23:36:43.618Z,101486.56
2023-04-27T23:39:09.958Z,101493.84
2023-04-27T23:41:37.138Z,101486.56
2023-04-27T23:44:03.523Z,101480.81
2023-04-27T23:46:29.916Z,101479.34
2023-04-27T23:48:56.288Z,101479.34
2023-04-27T23:51:22.624Z,101474.94
2023-04-27T23:53:48.961Z,101472.06
2023-04-27T23:56:16.251Z,101472.06
2023-04-27T23:58:42.582Z,101464.84
